Terminal Aerodrome Forecast
Issued by NWS

Current Version | Previous Version | Graphics & Text | Print | Product List | Glossary On
Versions: 1 2 3 4 5 6 7 8 9 10 11 12 13 14 15 16 17 18 19
000
FTUS41 KILN 222300 CCA
TAFLUK
TAF COR
KLUK 222348Z 2300/2324 06004KT P6SM OVC035
     FM230400 VRB03KT P6SM SKC
     FM230800 00000KT 4SM BR SKC
     FM231300 VRB03KT P6SM SCT250=

USA.gov is the U.S. government's official web portal to all federal, state and local government web resources and services.